Time;durP1;ratioP1;P1;durP2;ratioP2;P2;SDS_P1;SDS_P2;PMS_P1;PMS_P2;Temp;Humidity;BMP_temperature;BMP_pressure;BME280_temperature;BME280_humidity;BME280_pressure;Samples;Min_cycle;Max_cycle;Signal;HPM_P1;HPM_P2
2021/06/30 00:01:33;;;;;;;5.15;3.50;;;22.00;99.90;;;;;;4190733;28;20040;-61
2021/06/30 00:03:34;;;;;;;3.88;3.40;;;21.90;99.90;;;;;;4190612;28;20085;-62
2021/06/30 00:05:36;;;;;;;4.47;3.53;;;21.90;99.90;;;;;;4190507;28;20036;-61
2021/06/30 00:07:37;;;;;;;6.20;3.53;;;21.90;99.90;;;;;;4190904;28;20484;-61
2021/06/30 00:09:39;;;;;;;5.53;3.50;;;21.80;99.90;;;;;;4190170;28;20029;-60
2021/06/30 00:11:40;;;;;;;3.50;3.20;;;21.80;99.90;;;;;;4190962;28;20033;-60
2021/06/30 00:13:42;;;;;;;4.40;3.15;;;21.80;99.90;;;;;;4190747;28;20054;-59
2021/06/30 00:15:45;;;;;;;8.20;3.83;;;21.80;99.90;;;;;;4190257;28;20131;-62
2021/06/30 00:17:47;;;;;;;3.80;2.95;;;21.80;99.90;;;;;;4190755;28;20037;-62
2021/06/30 00:19:48;;;;;;;6.13;3.65;;;21.80;99.90;;;;;;4190600;28;20063;-59
2021/06/30 00:21:50;;;;;;;5.45;3.35;;;21.70;99.90;;;;;;4189970;28;20040;-60
2021/06/30 00:23:51;;;;;;;6.65;4.68;;;21.70;99.90;;;;;;4190278;28;20090;-60
2021/06/30 00:25:52;;;;;;;4.35;3.83;;;21.70;99.90;;;;;;4190234;28;20113;-60
2021/06/30 00:27:54;;;;;;;4.78;3.92;;;21.60;99.90;;;;;;4190282;28;20457;-61
2021/06/30 00:29:55;;;;;;;7.07;3.90;;;21.60;99.90;;;;;;4190364;28;20033;-60
2021/06/30 00:31:56;;;;;;;9.65;4.25;;;21.60;99.90;;;;;;4190115;28;20436;-60
2021/06/30 00:34:02;;;;;;;6.55;3.58;;;21.60;99.90;;;;;;4189376;28;20086;-60
2021/06/30 00:36:03;;;;;;;5.70;4.00;;;21.60;99.90;;;;;;4189848;28;20052;-60
2021/06/30 00:38:04;;;;;;;4.82;4.43;;;21.60;99.90;;;;;;4190432;28;20040;-60
2021/06/30 00:40:06;;;;;;;6.07;3.92;;;21.50;99.90;;;;;;4189842;28;20032;-61
2021/06/30 00:42:09;;;;;;;4.35;3.92;;;21.50;99.90;;;;;;4189838;28;20036;-62
2021/06/30 00:44:10;;;;;;;6.07;3.67;;;21.50;99.90;;;;;;4189378;28;20036;-60
2021/06/30 00:46:11;;;;;;;4.35;3.55;;;21.50;99.90;;;;;;4189599;28;20086;-61
2021/06/30 00:48:12;;;;;;;3.70;3.40;;;21.40;99.90;;;;;;4189860;28;20102;-60
2021/06/30 00:50:18;;;;;;;3.80;3.45;;;21.50;99.90;;;;;;4189926;28;20040;-60
2021/06/30 00:52:19;;;;;;;5.13;3.08;;;21.40;99.90;;;;;;4189271;28;20040;-62
2021/06/30 00:54:21;;;;;;;4.05;3.42;;;21.40;99.90;;;;;;4188245;28;20125;-61
2021/06/30 00:56:26;;;;;;;5.25;3.55;;;21.50;99.90;;;;;;4190248;28;20033;-61
2021/06/30 00:58:27;;;;;;;6.25;3.47;;;21.40;99.90;;;;;;4189723;28;20094;-60
2021/06/30 01:00:28;;;;;;;6.32;4.35;;;21.40;99.90;;;;;;4189340;28;20525;-61
2021/06/30 01:02:29;;;;;;;4.82;4.28;;;21.30;99.90;;;;;;4190018;28;20440;-61
2021/06/30 01:04:31;;;;;;;7.60;4.45;;;21.20;99.90;;;;;;4188997;28;20074;-62
2021/06/30 01:06:32;;;;;;;11.57;5.57;;;21.00;99.90;;;;;;4189820;28;20090;-63
2021/06/30 01:08:34;;;;;;;7.93;5.00;;;21.00;99.90;;;;;;4189604;28;20032;-60
2021/06/30 01:10:35;;;;;;;11.60;5.50;;;20.90;99.90;;;;;;4189441;28;20029;-61
2021/06/30 01:12:37;;;;;;;7.10;5.10;;;20.90;99.90;;;;;;4189265;28;20029;-61
2021/06/30 01:14:38;;;;;;;11.23;5.55;;;20.80;99.90;;;;;;4189113;28;20028;-60
2021/06/30 01:16:39;;;;;;;8.85;4.80;;;20.70;99.90;;;;;;4189611;28;20810;-60
2021/06/30 01:18:41;;;;;;;6.88;5.22;;;20.70;99.90;;;;;;4189477;28;20021;-61
2021/06/30 01:20:42;;;;;;;11.43;5.93;;;20.60;99.90;;;;;;4188906;28;20899;-61
2021/06/30 01:22:44;;;;;;;13.68;7.57;;;20.50;99.90;;;;;;4189406;28;20052;-60
2021/06/30 01:24:50;;;;;;;9.90;6.75;;;20.50;99.90;;;;;;4189077;28;20044;-60
2021/06/30 01:26:51;;;;;;;11.45;6.75;;;20.50;99.90;;;;;;4189522;28;20066;-62
2021/06/30 01:28:52;;;;;;;17.83;8.30;;;20.40;99.90;;;;;;4188969;28;20717;-61
2021/06/30 01:30:54;;;;;;;14.38;9.35;;;20.40;99.90;;;;;;4188844;28;20114;-61
2021/06/30 01:32:56;;;;;;;16.15;9.48;;;20.40;99.90;;;;;;4189693;28;20093;-61
2021/06/30 01:34:57;;;;;;;14.77;8.73;;;20.40;99.90;;;;;;4189111;28;20033;-62
2021/06/30 01:36:58;;;;;;;13.73;9.35;;;20.30;99.90;;;;;;4189037;28;20146;-62
2021/06/30 01:38:59;;;;;;;13.93;8.93;;;20.20;99.90;;;;;;4188452;28;20029;-62
2021/06/30 01:41:00;;;;;;;16.45;9.15;;;20.20;99.90;;;;;;4189018;28;20033;-61
2021/06/30 01:43:03;;;;;;;17.30;8.85;;;20.10;99.90;;;;;;4189203;28;20439;-62
2021/06/30 01:45:04;;;;;;;17.15;8.27;;;20.10;99.90;;;;;;4188990;28;20102;-60
2021/06/30 01:47:05;;;;;;;17.75;8.45;;;20.10;99.90;;;;;;4188692;28;20040;-61
2021/06/30 01:49:07;;;;;;;17.45;9.07;;;20.20;99.90;;;;;;4188528;28;20032;-59
2021/06/30 01:51:08;;;;;;;19.58;9.85;;;20.20;99.90;;;;;;4189340;28;20460;-61
2021/06/30 01:53:09;;;;;;;10.98;8.23;;;20.20;99.90;;;;;;4189286;28;20041;-61
2021/06/30 01:55:11;;;;;;;16.10;10.10;;;20.20;99.90;;;;;;4189443;28;20044;-61
2021/06/30 01:57:12;;;;;;;23.38;12.25;;;20.30;99.90;;;;;;4189235;28;20033;-61
2021/06/30 01:59:14;;;;;;;18.90;9.68;;;20.20;99.90;;;;;;4188789;28;20586;-60
2021/06/30 02:01:16;;;;;;;17.08;10.63;;;20.20;99.90;;;;;;4188767;28;20033;-61
2021/06/30 02:03:18;;;;;;;18.92;10.93;;;20.30;99.90;;;;;;4188833;28;20489;-61
2021/06/30 02:05:21;;;;;;;19.33;11.27;;;20.30;99.90;;;;;;4188864;28;20028;-61
2021/06/30 02:07:22;;;;;;;17.55;10.52;;;20.30;99.90;;;;;;4188993;28;20078;-60
2021/06/30 02:09:23;;;;;;;20.33;9.95;;;20.20;99.90;;;;;;4188589;28;20101;-61
2021/06/30 02:11:25;;;;;;;17.50;9.95;;;20.20;99.90;;;;;;4188096;28;20759;-61
2021/06/30 02:13:26;;;;;;;16.73;9.05;;;20.20;99.90;;;;;;4188695;28;20044;-61
2021/06/30 02:15:30;;;;;;;15.93;10.23;;;20.20;99.90;;;;;;4188442;28;20049;-60
2021/06/30 02:17:32;;;;;;;26.35;11.65;;;20.10;99.90;;;;;;4189210;28;20040;-61
2021/06/30 02:19:33;;;;;;;25.42;9.77;;;20.00;99.90;;;;;;4188243;28;20040;-62
2021/06/30 02:21:35;;;;;;;13.60;8.88;;;20.00;99.90;;;;;;4188470;28;20024;-61
2021/06/30 02:23:36;;;;;;;15.73;9.15;;;19.90;99.90;;;;;;4188834;28;20048;-61
2021/06/30 02:25:38;;;;;;;17.50;9.20;;;19.90;99.90;;;;;;4188413;28;20032;-62
2021/06/30 02:27:40;;;;;;;18.35;8.85;;;19.90;99.90;;;;;;4188718;28;20097;-61
2021/06/30 02:29:41;;;;;;;16.52;8.65;;;19.90;99.90;;;;;;4188549;28;20094;-60
2021/06/30 02:31:43;;;;;;;14.75;8.90;;;19.90;99.90;;;;;;4188869;28;20041;-61
2021/06/30 02:33:45;;;;;;;19.48;9.27;;;19.90;99.90;;;;;;4188892;28;20020;-63
2021/06/30 02:35:46;;;;;;;20.42;9.05;;;19.90;99.90;;;;;;4188365;28;20013;-60
2021/06/30 02:37:49;;;;;;;17.75;9.02;;;19.90;99.90;;;;;;4188550;28;20465;-61
2021/06/30 02:39:50;;;;;;;11.75;8.20;;;19.90;99.90;;;;;;4187934;28;20086;-62
2021/06/30 02:41:52;;;;;;;15.20;8.05;;;19.80;99.90;;;;;;4188955;28;20082;-60
2021/06/30 02:43:53;;;;;;;11.48;7.07;;;19.80;99.90;;;;;;4188419;28;20048;-60
2021/06/30 02:45:54;;;;;;;12.40;7.20;;;19.80;99.90;;;;;;4188285;28;20576;-59
2021/06/30 02:47:56;;;;;;;13.80;7.97;;;19.80;99.90;;;;;;4188496;28;20083;-60
2021/06/30 02:49:57;;;;;;;11.77;7.07;;;19.90;99.90;;;;;;4187919;28;20386;-60
2021/06/30 02:51:58;;;;;;;10.65;6.40;;;19.80;99.90;;;;;;4188692;28;20054;-60
2021/06/30 02:53:59;;;;;;;9.60;7.88;;;19.80;99.90;;;;;;4188236;28;20028;-60
2021/06/30 02:56:02;;;;;;;11.60;7.70;;;19.80;99.90;;;;;;4188168;28;20032;-61
2021/06/30 02:58:03;;;;;;;14.32;9.25;;;19.80;99.90;;;;;;4189971;28;20032;-61
2021/06/30 03:00:13;;;;;;;14.45;9.57;;;19.80;99.90;;;;;;4192080;28;20106;-63
2021/06/30 03:02:14;;;;;;;;;;;19.80;99.90;;;;;;4191980;28;20454;-62
2021/06/30 03:04:15;;;;;;;24.75;12.55;;;19.80;99.90;;;;;;4191225;28;19915;-60
2021/06/30 03:06:16;;;;;;;16.48;12.25;;;19.80;99.90;;;;;;4190451;28;20037;-60
2021/06/30 03:08:17;;;;;;;19.15;12.00;;;20.00;99.90;;;;;;4190937;28;20063;-61
2021/06/30 03:10:19;;;;;;;18.23;11.25;;;20.00;99.90;;;;;;4190033;28;20044;-63
2021/06/30 03:12:20;;;;;;;14.27;10.55;;;20.10;99.90;;;;;;4191791;28;20101;-61
2021/06/30 03:14:22;;;;;;;21.52;10.35;;;20.10;99.90;;;;;;4191240;28;20028;-60
2021/06/30 03:16:23;;;;;;;14.88;10.10;;;20.30;99.90;;;;;;4190960;28;20036;-60
2021/06/30 03:18:24;;;;;;;14.02;10.13;;;20.40;99.90;;;;;;4189455;28;20122;-59
2021/06/30 03:20:26;;;;;;;12.20;9.98;;;20.60;99.90;;;;;;4191256;28;20040;-58
2021/06/30 03:22:27;;;;;;;13.15;10.07;;;20.70;99.90;;;;;;4191603;28;20419;-61
2021/06/30 03:24:28;;;;;;;17.05;12.60;;;20.70;99.90;;;;;;4190738;28;20028;-60
2021/06/30 03:26:29;;;;;;;13.90;10.18;;;20.80;99.90;;;;;;4191989;28;20663;-63
2021/06/30 03:28:30;;;;;;;16.30;10.13;;;20.70;99.90;;;;;;4190874;28;20078;-62
2021/06/30 03:30:34;;;;;;;12.30;10.27;;;20.80;99.90;;;;;;4190526;28;20556;-62
2021/06/30 03:32:35;;;;;;;15.02;8.48;;;20.90;99.90;;;;;;4191710;28;20025;-60
2021/06/30 03:34:36;;;;;;;24.40;19.30;;;21.20;99.90;;;;;;4190945;28;20040;-59
2021/06/30 03:36:38;;;;;;;42.92;29.25;;;21.40;99.90;;;;;;4190919;28;20024;-61
2021/06/30 03:38:39;;;;;;;35.53;25.08;;;21.50;99.90;;;;;;4190643;28;20066;-60
2021/06/30 03:40:40;;;;;;;54.63;40.97;;;21.60;99.90;;;;;;4190505;28;20052;-61
2021/06/30 03:42:41;;;;;;;36.20;26.65;;;21.80;99.90;;;;;;4190880;28;20033;-61
2021/06/30 03:44:43;;;;;;;31.85;17.20;;;21.90;99.90;;;;;;4190314;28;20423;-60
2021/06/30 03:46:44;;;;;;;24.95;15.43;;;22.00;99.90;;;;;;4174489;28;20106;-60
2021/06/30 03:48:45;;;;;;;25.77;16.15;;;22.00;99.90;;;;;;4173038;28;20164;-61
2021/06/30 03:50:46;;;;;;;29.05;16.75;;;22.00;99.90;;;;;;4174192;28;20037;-62
2021/06/30 03:52:47;;;;;;;26.70;16.50;;;22.10;99.90;;;;;;4175612;28;20037;-62
2021/06/30 03:54:48;;;;;;;27.15;15.43;;;22.30;99.90;;;;;;4189288;28;20081;-65
2021/06/30 03:56:49;;;;;;;20.63;14.02;;;22.40;99.90;;;;;;4190864;28;20037;-61
2021/06/30 03:58:55;;;;;;;25.17;14.23;;;22.80;99.90;;;;;;4190072;28;20579;-62
2021/06/30 04:00:57;;;;;;;21.05;12.95;;;23.10;99.90;;;;;;4190263;28;20040;-62
2021/06/30 04:02:58;;;;;;;28.80;16.60;;;23.50;99.90;;;;;;4190677;28;20667;-61
2021/06/30 04:04:59;;;;;;;22.50;15.68;;;23.80;99.90;;;;;;4190502;28;20421;-62
2021/06/30 04:07:00;;;;;;;33.75;22.40;;;23.90;99.90;;;;;;4189974;28;20028;-61
2021/06/30 04:09:01;;;;;;;29.83;16.80;;;24.10;99.90;;;;;;4190130;28;20173;-61
2021/06/30 04:11:02;;;;;;;25.33;17.10;;;24.20;99.90;;;;;;4190063;28;20024;-60
2021/06/30 04:13:04;;;;;;;21.10;15.65;;;24.30;99.90;;;;;;4189759;28;20036;-63
2021/06/30 04:15:07;;;;;;;30.60;15.00;;;24.40;99.90;;;;;;4189863;28;20445;-61
2021/06/30 04:17:08;;;;;;;26.38;15.50;;;24.60;99.90;;;;;;4190061;28;20546;-62
2021/06/30 04:19:10;;;;;;;19.95;13.18;;;24.80;99.90;;;;;;4190325;28;20036;-62
2021/06/30 04:21:11;;;;;;;20.67;12.00;;;24.90;99.90;;;;;;4189888;28;20460;-60
2021/06/30 04:23:12;;;;;;;18.45;12.70;;;25.00;99.90;;;;;;4190040;28;20095;-62
2021/06/30 04:25:13;;;;;;;17.98;13.13;;;25.30;99.90;;;;;;4190535;28;20033;-62
2021/06/30 04:27:14;;;;;;;21.10;12.15;;;25.70;99.90;;;;;;4189924;28;20390;-62
2021/06/30 04:29:15;;;;;;;19.80;12.27;;;26.40;99.90;;;;;;4189652;28;20446;-63
2021/06/30 04:31:16;;;;;;;21.02;11.23;;;27.00;99.90;;;;;;4189612;28;20095;-61
2021/06/30 04:33:17;;;;;;;21.67;12.13;;;27.40;99.90;;;;;;4190438;28;20040;-62
2021/06/30 04:35:19;;;;;;;15.48;10.05;;;27.70;99.90;;;;;;4189966;28;20021;-63
2021/06/30 04:37:20;;;;;;;18.15;8.88;;;27.80;99.90;;;;;;4189794;28;20084;-62
2021/06/30 04:39:23;;;;;;;18.25;9.30;;;27.50;99.90;;;;;;4189823;28;20039;-63
2021/06/30 04:41:24;;;;;;;17.27;8.82;;;27.50;99.90;;;;;;4188401;28;20513;-61
2021/06/30 04:43:25;;;;;;;15.93;8.18;;;27.20;99.90;;;;;;4189563;28;20044;-63
2021/06/30 04:45:26;;;;;;;15.07;7.85;;;27.60;99.90;;;;;;4189417;28;20025;-64
2021/06/30 04:47:27;;;;;;;19.88;9.25;;;27.70;99.90;;;;;;4189401;28;20037;-63
2021/06/30 04:49:29;;;;;;;20.05;9.75;;;27.60;99.90;;;;;;4188843;28;20065;-63
2021/06/30 04:51:31;;;;;;;18.35;9.02;;;27.50;99.90;;;;;;4188831;28;20020;-63
2021/06/30 04:53:32;;;;;;;14.05;8.20;;;27.20;99.90;;;;;;4189260;28;20633;-63
2021/06/30 04:55:33;;;;;;;14.88;8.45;;;26.50;99.90;;;;;;4188424;28;20040;-60
2021/06/30 04:57:36;;;;;;;12.50;7.15;;;26.10;99.90;;;;;;4189544;28;20024;-62
2021/06/30 04:59:38;;;;;;;12.85;7.65;;;25.60;99.90;;;;;;4188321;28;20033;-61
2021/06/30 05:01:39;;;;;;;11.70;6.75;;;25.00;99.90;;;;;;4188801;28;20036;-63
2021/06/30 05:03:40;;;;;;;11.48;6.60;;;24.40;99.90;;;;;;4186368;28;20045;-62
2021/06/30 05:05:41;;;;;;;12.40;7.75;;;24.20;99.90;;;;;;4189432;28;20028;-62
2021/06/30 05:07:42;;;;;;;10.73;7.10;;;23.90;99.90;;;;;;4187701;28;20024;-62
2021/06/30 05:09:45;;;;;;;12.63;6.65;;;23.80;99.90;;;;;;4189426;28;20431;-62
2021/06/30 05:11:46;;;;;;;12.40;6.75;;;23.60;99.90;;;;;;4189575;28;20079;-62
2021/06/30 05:13:47;;;;;;;11.25;6.88;;;23.30;99.90;;;;;;4188697;28;20550;-62
2021/06/30 05:15:48;;;;;;;9.93;6.82;;;23.20;99.90;;;;;;4188966;28;20081;-61
2021/06/30 05:17:50;;;;;;;13.18;6.88;;;23.00;99.90;;;;;;4189151;28;20029;-63
2021/06/30 05:19:51;;;;;;;8.50;6.22;;;23.00;99.90;;;;;;4188749;28;20090;-62
2021/06/30 05:21:52;;;;;;;12.05;6.60;;;23.20;99.90;;;;;;4188641;28;20036;-63
2021/06/30 05:23:54;;;;;;;17.33;7.38;;;23.50;99.90;;;;;;4188816;28;20041;-61
2021/06/30 05:25:55;;;;;;;10.02;7.03;;;23.50;99.90;;;;;;4188915;28;20082;-63
2021/06/30 05:27:56;;;;;;;12.05;6.95;;;23.30;99.90;;;;;;4188768;28;20543;-62
2021/06/30 05:29:57;;;;;;;10.38;7.32;;;23.10;99.90;;;;;;4188340;28;20090;-62
2021/06/30 05:31:58;;;;;;;11.73;7.43;;;22.90;99.90;;;;;;4188548;28;20086;-62
2021/06/30 05:33:59;;;;;;;11.70;7.43;;;22.70;99.90;;;;;;4188357;28;20488;-62
2021/06/30 05:36:02;;;;;;;9.90;7.47;;;22.60;99.90;;;;;;4175388;28;20036;-61
2021/06/30 05:38:04;;;;;;;9.98;8.07;;;22.30;99.90;;;;;;4188805;28;20013;-61
2021/06/30 05:40:06;;;;;;;13.90;8.13;;;22.20;99.90;;;;;;4189022;28;20522;-61
2021/06/30 05:42:07;;;;;;;10.02;7.95;;;22.00;99.90;;;;;;4187697;28;20033;-61
2021/06/30 05:44:09;;;;;;;14.02;8.38;;;21.90;99.90;;;;;;4188603;28;20458;-60
2021/06/30 05:46:10;;;;;;;12.18;7.70;;;22.10;99.90;;;;;;4189384;28;20032;-64
2021/06/30 05:48:11;;;;;;;9.45;8.23;;;22.30;99.90;;;;;;4189063;28;20078;-63
2021/06/30 05:50:14;;;;;;;14.32;9.65;;;22.40;99.90;;;;;;4186850;28;20090;-65
2021/06/30 05:52:15;;;;;;;12.45;7.13;;;22.40;99.90;;;;;;4188465;28;20460;-63
2021/06/30 05:54:16;;;;;;;10.85;8.20;;;22.60;99.90;;;;;;4187798;28;20033;-63
2021/06/30 05:56:18;;;;;;;12.75;8.43;;;22.80;99.90;;;;;;4188859;28;20386;-60
2021/06/30 05:58:19;;;;;;;13.32;8.20;;;23.00;99.90;;;;;;4189037;28;20105;-61
2021/06/30 06:00:22;;;;;;;12.38;7.00;;;23.00;99.90;;;;;;4189131;28;20049;-61
2021/06/30 06:02:23;;;;;;;12.57;7.50;;;23.20;99.90;;;;;;4188860;28;20069;-63
2021/06/30 06:04:24;;;;;;;10.50;7.40;;;23.40;99.90;;;;;;4187694;28;20406;-62
2021/06/30 06:06:27;;;;;;;13.55;8.32;;;23.70;99.90;;;;;;4188471;28;20036;-62
2021/06/30 06:08:28;;;;;;;11.38;7.78;;;23.80;99.90;;;;;;4183115;28;20059;-62
2021/06/30 06:10:30;;;;;;;18.00;8.98;;;23.90;99.90;;;;;;4176669;28;20013;-62
2021/06/30 06:12:31;;;;;;;12.60;7.88;;;23.90;99.90;;;;;;4190022;28;20036;-63
2021/06/30 06:14:32;;;;;;;14.48;8.30;;;24.00;99.90;;;;;;4183323;28;20029;-63
2021/06/30 06:16:33;;;;;;;12.02;7.53;;;24.30;99.90;;;;;;4179285;28;20098;-62
2021/06/30 06:18:35;;;;;;;15.35;8.63;;;24.60;99.90;;;;;;4172198;28;20114;-62
2021/06/30 06:20:36;;;;;;;9.98;7.75;;;24.90;99.90;;;;;;4180199;28;20549;-65
2021/06/30 06:22:38;;;;;;;14.95;8.88;;;24.90;99.90;;;;;;4188788;28;20094;-63
2021/06/30 06:24:40;;;;;;;11.80;8.43;;;24.90;99.90;;;;;;4188436;28;20044;-62
2021/06/30 06:26:41;;;;;;;9.32;7.28;;;25.00;99.90;;;;;;4188376;28;20028;-61
2021/06/30 06:28:43;;;;;;;15.07;8.50;;;25.10;99.90;;;;;;4189272;28;20125;-62
2021/06/30 06:30:48;;;;;;;10.85;8.30;;;25.30;99.90;;;;;;4188729;28;20037;-62
2021/06/30 06:32:49;;;;;;;10.35;7.45;;;25.20;99.90;;;;;;4191283;28;20036;-62
2021/06/30 06:34:51;;;;;;;14.32;9.32;;;24.90;99.90;;;;;;4192129;28;20082;-63
2021/06/30 06:36:52;;;;;;;13.23;7.78;;;24.80;99.90;;;;;;4192030;28;20411;-62
2021/06/30 06:38:54;;;;;;;13.65;7.78;;;25.00;99.90;;;;;;4191312;28;20021;-62
2021/06/30 06:40:55;;;;;;;11.57;7.10;;;25.10;99.90;;;;;;4191598;28;20091;-63
2021/06/30 06:42:56;;;;;;;10.25;7.55;;;25.40;99.90;;;;;;4185016;28;20025;-62
2021/06/30 06:44:57;;;;;;;16.80;7.80;;;25.50;99.90;;;;;;4174888;28;20044;-61
2021/06/30 06:46:58;;;;;;;12.15;7.78;;;25.70;99.90;;;;;;4178455;28;20024;-62
2021/06/30 06:48:59;;;;;;;10.15;7.40;;;25.90;99.90;;;;;;4192106;28;20044;-62
2021/06/30 06:51:01;;;;;;;11.10;8.23;;;26.00;99.90;;;;;;4191238;28;20069;-63
2021/06/30 06:53:02;;;;;;;11.05;6.55;;;26.00;99.90;;;;;;4191986;28;20079;-62
2021/06/30 06:55:09;;;;;;;8.23;7.35;;;25.90;99.90;;;;;;4190530;28;20024;-62
2021/06/30 06:57:10;;;;;;;12.85;7.75;;;25.90;99.90;;;;;;4190930;28;20498;-64
2021/06/30 06:59:12;;;;;;;12.02;7.25;;;25.80;99.90;;;;;;4191511;28;20041;-61
2021/06/30 07:01:13;;;;;;;10.18;6.75;;;26.00;99.90;;;;;;4191753;28;20435;-66
2021/06/30 07:03:14;;;;;;;7.45;6.75;;;26.10;99.90;;;;;;4191903;28;20028;-62
2021/06/30 07:05:15;;;;;;;10.48;7.10;;;26.20;99.90;;;;;;4191869;28;20094;-64
2021/06/30 07:07:16;;;;;;;9.15;6.45;;;26.10;99.90;;;;;;4191790;28;20434;-62
2021/06/30 07:09:18;;;;;;;13.10;8.60;;;26.00;99.90;;;;;;4190955;28;20065;-63
2021/06/30 07:11:19;;;;;;;10.60;7.15;;;26.10;99.90;;;;;;4192050;28;20062;-63
2021/06/30 07:13:20;;;;;;;9.95;7.38;;;26.00;99.90;;;;;;4191520;28;20680;-62
2021/06/30 07:15:21;;;;;;;8.43;5.93;;;25.90;99.90;;;;;;4192049;28;20476;-63
2021/06/30 07:17:22;;;;;;;11.98;6.43;;;25.90;99.90;;;;;;4190707;28;20037;-62
2021/06/30 07:19:23;;;;;;;12.60;6.82;;;25.90;99.90;;;;;;4189938;28;20033;-63
2021/06/30 07:21:24;;;;;;;7.90;6.68;;;26.10;99.90;;;;;;4184423;28;20033;-64
2021/06/30 07:23:26;;;;;;;8.68;6.10;;;26.20;99.90;;;;;;4187300;28;20028;-63
2021/06/30 07:25:27;;;;;;;11.88;6.80;;;26.30;99.90;;;;;;4186143;28;20037;-63
2021/06/30 07:27:29;;;;;;;10.13;7.25;;;26.30;99.90;;;;;;4186797;28;21077;-63
2021/06/30 07:29:30;;;;;;;7.78;6.88;;;26.30;99.90;;;;;;4185742;28;20024;-63
2021/06/30 07:31:31;;;;;;;14.07;6.70;;;26.30;99.90;;;;;;4186435;28;20102;-62
2021/06/30 07:33:33;;;;;;;8.57;5.88;;;26.50;99.90;;;;;;4187654;28;20101;-64
2021/06/30 07:35:34;;;;;;;8.40;6.45;;;26.70;99.90;;;;;;4177380;28;20082;-64
2021/06/30 07:37:35;;;;;;;9.02;6.40;;;26.70;99.90;;;;;;4189546;28;20078;-64
2021/06/30 07:39:36;;;;;;;9.50;6.05;;;26.80;99.90;;;;;;4190287;28;20446;-63
2021/06/30 07:41:38;;;;;;;7.53;6.72;;;26.90;99.90;;;;;;4190180;28;20033;-62
2021/06/30 07:43:39;;;;;;;10.25;6.97;;;27.00;99.90;;;;;;4186209;28;20052;-63
2021/06/30 07:45:40;;;;;;;8.93;6.03;;;27.10;99.90;;;;;;4186266;28;20197;-63
2021/06/30 07:47:41;;;;;;;9.68;5.97;;;27.20;99.90;;;;;;4186958;28;20086;-63
2021/06/30 07:49:42;;;;;;;8.00;5.38;;;27.60;99.90;;;;;;4188647;28;20496;-63
2021/06/30 07:51:43;;;;;;;15.40;7.20;;;27.60;99.90;;;;;;4190836;28;20082;-63
2021/06/30 07:53:44;;;;;;;13.68;7.07;;;27.70;99.90;;;;;;4191292;28;20078;-60
2021/06/30 07:55:46;;;;;;;10.60;7.25;;;27.70;99.90;;;;;;4185241;28;20074;-63
2021/06/30 07:57:48;;;;;;;9.05;6.45;;;27.90;99.90;;;;;;4184251;28;20024;-63
2021/06/30 07:59:49;;;;;;;10.65;7.85;;;28.10;99.90;;;;;;4188730;28;20048;-63
2021/06/30 08:01:50;;;;;;;10.45;6.63;;;28.30;99.90;;;;;;4182780;28;20032;-64
2021/06/30 08:03:51;;;;;;;10.48;6.65;;;28.40;99.90;;;;;;4188608;28;20060;-62
2021/06/30 08:05:53;;;;;;;13.10;6.60;;;28.60;99.90;;;;;;4185695;28;20044;-63
2021/06/30 08:07:54;;;;;;;9.55;6.90;;;28.80;99.90;;;;;;4185659;28;20098;-63
2021/06/30 08:09:55;;;;;;;11.00;6.55;;;28.60;99.90;;;;;;4186911;28;20044;-62
2021/06/30 08:11:59;;;;;;;12.85;7.13;;;28.70;99.90;;;;;;4186932;28;20579;-63
2021/06/30 08:14:01;;;;;;;6.53;5.85;;;29.00;99.90;;;;;;4185692;28;20045;-64
2021/06/30 08:16:02;;;;;;;14.55;6.53;;;29.30;99.90;;;;;;4185763;28;20572;-64
2021/06/30 08:18:03;;;;;;;11.15;5.82;;;29.60;99.90;;;;;;4185418;28;20029;-63
2021/06/30 08:20:05;;;;;;;11.65;5.80;;;29.60;99.90;;;;;;4186341;28;20094;-63
2021/06/30 08:22:12;;;;;;;12.60;5.78;;;29.60;99.90;;;;;;4184993;28;20032;-61
2021/06/30 08:24:13;;;;;;;15.15;6.82;;;29.70;99.90;;;;;;4188224;28;20081;-62
2021/06/30 08:26:15;;;;;;;7.88;5.88;;;29.70;99.80;;;;;;4189932;28;20449;-62
2021/06/30 08:28:22;;;;;;;9.57;5.43;;;29.80;99.20;;;;;;4190360;28;20036;-62
2021/06/30 08:30:23;;;;;;;16.40;5.95;;;29.90;98.70;;;;;;4189518;28;20082;-62
2021/06/30 08:32:25;;;;;;;7.22;5.25;;;30.00;98.40;;;;;;4188851;28;20469;-62
2021/06/30 08:34:27;;;;;;;8.70;5.60;;;30.10;98.20;;;;;;4190551;28;20033;-62
2021/06/30 08:36:28;;;;;;;14.43;5.40;;;30.30;97.90;;;;;;4189233;28;20105;-63
2021/06/30 08:38:29;;;;;;;14.10;5.50;;;30.60;97.80;;;;;;4190291;28;20477;-61
2021/06/30 08:40:31;;;;;;;9.57;6.03;;;30.80;97.40;;;;;;4190004;28;20369;-63
2021/06/30 08:42:33;;;;;;;10.25;5.35;;;31.10;97.00;;;;;;4189929;28;20109;-62
2021/06/30 08:44:35;;;;;;;8.80;5.10;;;31.40;96.60;;;;;;4189842;28;20184;-62
2021/06/30 08:46:38;;;;;;;8.15;4.82;;;31.50;96.40;;;;;;4187660;28;20045;-62
2021/06/30 08:48:40;;;;;;;8.27;4.90;;;31.70;96.20;;;;;;4187475;28;20020;-61
2021/06/30 08:50:43;;;;;;;10.40;4.80;;;31.70;95.00;;;;;;4190282;28;20098;-61
2021/06/30 08:52:47;;;;;;;11.48;4.45;;;31.70;94.40;;;;;;4189521;28;20097;-63
2021/06/30 08:54:50;;;;;;;14.63;4.93;;;31.80;94.00;;;;;;4189018;28;20531;-65
2021/06/30 08:56:52;;;;;;;13.52;5.13;;;31.90;93.60;;;;;;4189314;28;20060;-61
2021/06/30 08:58:54;;;;;;;7.03;4.18;;;31.80;92.90;;;;;;4189181;28;20086;-61
2021/06/30 09:00:55;;;;;;;13.32;5.40;;;31.80;92.90;;;;;;4189391;28;20509;-61
2021/06/30 09:03:00;;;;;;;17.45;5.45;;;31.70;93.00;;;;;;4188408;28;20101;-64
2021/06/30 09:05:48;;;;;;;10.80;4.55;;;31.60;92.40;;;;;;4188272;28;20137;-64
2021/06/30 09:07:31;;;;;;;7.10;4.43;;;31.50;92.30;;;;;;4187846;28;20029;-62
2021/06/30 09:09:38;;;;;;;10.13;4.50;;;31.50;92.30;;;;;;4178058;28;20081;-63
2021/06/30 09:11:52;;;;;;;13.30;5.05;;;31.50;92.10;;;;;;4189469;28;20090;-63
2021/06/30 09:14:11;;;;;;;14.40;5.35;;;31.50;92.40;;;;;;4189373;28;20062;-62
2021/06/30 09:16:12;;;;;;;15.43;5.35;;;31.40;92.00;;;;;;4187949;28;20068;-62
2021/06/30 09:18:24;;;;;;;12.10;4.70;;;31.20;92.10;;;;;;4188939;28;20029;-63
2021/06/30 09:20:25;;;;;;;9.68;5.40;;;31.10;92.20;;;;;;4188954;28;20463;-62
2021/06/30 09:22:29;;;;;;;16.77;5.15;;;31.00;92.60;;;;;;4188218;28;20103;-62
2021/06/30 09:24:36;;;;;;;12.77;5.38;;;31.10;92.70;;;;;;4187558;28;20162;-63
2021/06/30 09:26:45;;;;;;;15.15;5.55;;;31.00;92.90;;;;;;4188483;28;20036;-61
2021/06/30 09:28:46;;;;;;;11.77;5.37;;;31.00;92.40;;;;;;4189206;28;20020;-62
2021/06/30 09:31:06;;;;;;;12.32;5.35;;;31.00;92.40;;;;;;4188155;28;20323;-62
2021/06/30 09:33:07;;;;;;;13.98;5.55;;;31.10;91.60;;;;;;4174867;28;20083;-62
2021/06/30 09:35:48;;;;;;;7.07;4.75;;;31.20;92.30;;;;;;4187100;28;20025;-62
2021/06/30 09:37:49;;;;;;;10.93;5.65;;;31.30;91.80;;;;;;4165885;28;20501;-63
2021/06/30 09:39:55;;;;;;;8.65;5.15;;;31.30;91.90;;;;;;4166568;28;20048;-62
2021/06/30 09:42:07;;;;;;;19.75;5.93;;;31.30;91.60;;;;;;4169947;28;20374;-61
2021/06/30 09:44:12;;;;;;;19.65;5.13;;;31.40;91.60;;;;;;4187505;28;20113;-62
2021/06/30 09:46:25;;;;;;;9.57;4.82;;;31.60;91.90;;;;;;4188073;28;20032;-62
2021/06/30 09:48:33;;;;;;;20.83;5.18;;;31.60;91.40;;;;;;4189068;28;20049;-62
2021/06/30 09:50:38;;;;;;;7.97;4.20;;;31.70;91.10;;;;;;4188079;28;20037;-62
2021/06/30 09:52:41;;;;;;;19.73;5.00;;;31.70;91.20;;;;;;4187995;28;20051;-61
2021/06/30 09:54:45;;;;;;;13.15;4.93;;;31.60;90.90;;;;;;4188412;28;20090;-62
2021/06/30 09:57:03;;;;;;;14.85;5.03;;;31.50;90.80;;;;;;4188179;28;20036;-62
2021/06/30 09:59:13;;;;;;;15.68;4.75;;;31.40;90.90;;;;;;4188023;28;20091;-62
2021/06/30 10:01:20;;;;;;;8.10;4.60;;;31.30;90.80;;;;;;4188294;28;20036;-62
2021/06/30 10:03:47;;;;;;;13.35;4.80;;;31.30;90.90;;;;;;4189136;28;20094;-61
2021/06/30 10:05:48;;;;;;;9.35;4.70;;;31.40;90.40;;;;;;4169933;28;20048;-62
2021/06/30 10:07:50;;;;;;;11.85;4.93;;;31.40;90.50;;;;;;4185085;28;20045;-62
2021/06/30 10:09:51;;;;;;;12.63;5.18;;;31.40;90.50;;;;;;4188617;28;21561;-62
2021/06/30 10:12:03;;;;;;;12.07;5.68;;;31.40;90.50;;;;;;4188288;28;20040;-62
2021/06/30 10:14:04;;;;;;;8.82;5.10;;;31.40;90.60;;;;;;4188756;28;20398;-62
2021/06/30 10:16:05;;;;;;;8.88;4.85;;;31.20;91.10;;;;;;4187499;28;20059;-62
2021/06/30 10:18:06;;;;;;;9.45;5.00;;;31.10;90.90;;;;;;4188958;28;20032;-62
2021/06/30 10:20:08;;;;;;;19.60;5.60;;;31.00;91.10;;;;;;4188886;28;20094;-64
2021/06/30 10:22:11;;;;;;;12.95;5.57;;;30.90;90.90;;;;;;4183163;28;20025;-63
2021/06/30 10:24:17;;;;;;;18.00;6.13;;;30.80;91.40;;;;;;4187961;28;20032;-64
2021/06/30 10:26:20;;;;;;;13.60;5.93;;;30.80;92.10;;;;;;4187197;28;20486;-64
2021/06/30 10:28:22;;;;;;;13.23;5.65;;;30.80;91.90;;;;;;4171355;28;20033;-61
2021/06/30 10:30:23;;;;;;;13.73;5.43;;;30.80;91.90;;;;;;4180979;28;20440;-68